sensor_id;sensor_type;location;lat;lon;timestamp;P1;durP1;ratioP1;P2;durP2;ratioP2
52866;SDS011;38739;53.324;6.862;2022-12-20T00:01:51;9.73;;;6.22;;
52866;SDS011;38739;53.324;6.862;2022-12-20T00:04:17;8.98;;;6.50;;
52866;SDS011;38739;53.324;6.862;2022-12-20T00:06:42;9.20;;;6.45;;
52866;SDS011;38739;53.324;6.862;2022-12-20T00:09:08;11.45;;;6.47;;
52866;SDS011;38739;53.324;6.862;2022-12-20T00:11:37;10.30;;;6.65;;
52866;SDS011;38739;53.324;6.862;2022-12-20T00:14:05;11.40;;;6.50;;
52866;SDS011;38739;53.324;6.862;2022-12-20T00:16:31;13.23;;;6.95;;
52866;SDS011;38739;53.324;6.862;2022-12-20T00:18:58;13.45;;;6.68;;
52866;SDS011;38739;53.324;6.862;2022-12-20T00:21:26;12.63;;;6.22;;
52866;SDS011;38739;53.324;6.862;2022-12-20T00:23:53;10.43;;;6.15;;
52866;SDS011;38739;53.324;6.862;2022-12-20T00:26:21;10.52;;;6.32;;
52866;SDS011;38739;53.324;6.862;2022-12-20T00:28:52;8.43;;;6.05;;
52866;SDS011;38739;53.324;6.862;2022-12-20T00:31:19;9.80;;;6.45;;
52866;SDS011;38739;53.324;6.862;2022-12-20T00:33:47;11.45;;;6.45;;
52866;SDS011;38739;53.324;6.862;2022-12-20T00:36:14;9.32;;;6.07;;
52866;SDS011;38739;53.324;6.862;2022-12-20T00:38:43;8.43;;;6.15;;
52866;SDS011;38739;53.324;6.862;2022-12-20T00:41:17;9.98;;;6.22;;
52866;SDS011;38739;53.324;6.862;2022-12-20T00:43:44;9.98;;;5.88;;
52866;SDS011;38739;53.324;6.862;2022-12-20T00:46:11;9.80;;;6.25;;
52866;SDS011;38739;53.324;6.862;2022-12-20T00:48:38;9.65;;;6.35;;
52866;SDS011;38739;53.324;6.862;2022-12-20T00:51:08;9.68;;;5.90;;
52866;SDS011;38739;53.324;6.862;2022-12-20T00:53:36;11.70;;;6.00;;
52866;SDS011;38739;53.324;6.862;2022-12-20T00:56:02;7.85;;;5.80;;
52866;SDS011;38739;53.324;6.862;2022-12-20T00:58:30;8.15;;;5.82;;
52866;SDS011;38739;53.324;6.862;2022-12-20T01:00:57;8.57;;;5.85;;
52866;SDS011;38739;53.324;6.862;2022-12-20T01:03:24;8.68;;;5.90;;
52866;SDS011;38739;53.324;6.862;2022-12-20T01:05:51;9.55;;;6.00;;
52866;SDS011;38739;53.324;6.862;2022-12-20T01:08:22;11.05;;;5.82;;
52866;SDS011;38739;53.324;6.862;2022-12-20T01:11:01;12.15;;;6.22;;
52866;SDS011;38739;53.324;6.862;2022-12-20T01:13:31;9.63;;;5.43;;
52866;SDS011;38739;53.324;6.862;2022-12-20T01:16:02;9.02;;;5.00;;
52866;SDS011;38739;53.324;6.862;2022-12-20T01:18:33;10.30;;;6.10;;
52866;SDS011;38739;53.324;6.862;2022-12-20T01:21:02;8.82;;;5.20;;
52866;SDS011;38739;53.324;6.862;2022-12-20T01:23:30;11.63;;;5.45;;
52866;SDS011;38739;53.324;6.862;2022-12-20T01:25:57;9.98;;;5.88;;
52866;SDS011;38739;53.324;6.862;2022-12-20T01:28:23;8.25;;;5.55;;
52866;SDS011;38739;53.324;6.862;2022-12-20T01:30:49;8.35;;;5.47;;
52866;SDS011;38739;53.324;6.862;2022-12-20T01:33:15;10.27;;;5.78;;
52866;SDS011;38739;53.324;6.862;2022-12-20T01:35:40;10.10;;;5.32;;
52866;SDS011;38739;53.324;6.862;2022-12-20T01:38:06;7.53;;;5.13;;
52866;SDS011;38739;53.324;6.862;2022-12-20T01:40:32;7.70;;;4.90;;
52866;SDS011;38739;53.324;6.862;2022-12-20T01:42:57;11.50;;;5.20;;
52866;SDS011;38739;53.324;6.862;2022-12-20T01:45:27;8.60;;;4.82;;
52866;SDS011;38739;53.324;6.862;2022-12-20T01:47:55;8.02;;;5.10;;
52866;SDS011;38739;53.324;6.862;2022-12-20T01:50:23;7.00;;;4.75;;
52866;SDS011;38739;53.324;6.862;2022-12-20T01:52:50;7.88;;;4.90;;
52866;SDS011;38739;53.324;6.862;2022-12-20T01:55:18;7.97;;;4.80;;
52866;SDS011;38739;53.324;6.862;2022-12-20T01:57:48;7.20;;;4.57;;
52866;SDS011;38739;53.324;6.862;2022-12-20T02:02:46;6.70;;;4.50;;
52866;SDS011;38739;53.324;6.862;2022-12-20T02:05:14;8.40;;;5.00;;
52866;SDS011;38739;53.324;6.862;2022-12-20T02:07:41;7.50;;;4.82;;
52866;SDS011;38739;53.324;6.862;2022-12-20T02:10:09;7.07;;;4.30;;
52866;SDS011;38739;53.324;6.862;2022-12-20T02:12:43;7.38;;;4.68;;
52866;SDS011;38739;53.324;6.862;2022-12-20T02:23:33;7.88;;;5.00;;
52866;SDS011;38739;53.324;6.862;2022-12-20T02:32:31;8.30;;;4.70;;
52866;SDS011;38739;53.324;6.862;2022-12-20T02:35:05;8.55;;;4.60;;
52866;SDS011;38739;53.324;6.862;2022-12-20T02:37:35;7.10;;;4.38;;
52866;SDS011;38739;53.324;6.862;2022-12-20T02:40:01;6.50;;;4.20;;
52866;SDS011;38739;53.324;6.862;2022-12-20T02:42:29;8.35;;;4.50;;
52866;SDS011;38739;53.324;6.862;2022-12-20T02:45:02;7.40;;;4.32;;
52866;SDS011;38739;53.324;6.862;2022-12-20T02:47:41;5.80;;;4.40;;
52866;SDS011;38739;53.324;6.862;2022-12-20T02:50:37;7.55;;;4.45;;
52866;SDS011;38739;53.324;6.862;2022-12-20T02:53:04;8.32;;;4.60;;
52866;SDS011;38739;53.324;6.862;2022-12-20T02:55:43;6.22;;;4.40;;
52866;SDS011;38739;53.324;6.862;2022-12-20T03:01:03;6.30;;;4.20;;
52866;SDS011;38739;53.324;6.862;2022-12-20T03:03:33;6.07;;;4.45;;
52866;SDS011;38739;53.324;6.862;2022-12-20T03:06:00;9.68;;;4.90;;
52866;SDS011;38739;53.324;6.862;2022-12-20T03:08:26;8.23;;;4.60;;
52866;SDS011;38739;53.324;6.862;2022-12-20T03:10:52;7.57;;;4.68;;
52866;SDS011;38739;53.324;6.862;2022-12-20T03:13:19;7.70;;;4.75;;
52866;SDS011;38739;53.324;6.862;2022-12-20T03:15:45;6.00;;;4.25;;
52866;SDS011;38739;53.324;6.862;2022-12-20T03:18:11;7.85;;;4.95;;
52866;SDS011;38739;53.324;6.862;2022-12-20T03:20:37;7.15;;;4.65;;
52866;SDS011;38739;53.324;6.862;2022-12-20T03:23:03;7.32;;;4.65;;
52866;SDS011;38739;53.324;6.862;2022-12-20T03:25:29;7.25;;;4.70;;
52866;SDS011;38739;53.324;6.862;2022-12-20T03:27:55;7.35;;;4.93;;
52866;SDS011;38739;53.324;6.862;2022-12-20T03:30:20;6.15;;;4.53;;
52866;SDS011;38739;53.324;6.862;2022-12-20T03:32:46;9.05;;;5.07;;
52866;SDS011;38739;53.324;6.862;2022-12-20T03:35:12;6.25;;;4.35;;
52866;SDS011;38739;53.324;6.862;2022-12-20T03:37:37;7.75;;;4.75;;
52866;SDS011;38739;53.324;6.862;2022-12-20T03:40:03;10.15;;;4.97;;
52866;SDS011;38739;53.324;6.862;2022-12-20T03:42:30;7.90;;;4.95;;
52866;SDS011;38739;53.324;6.862;2022-12-20T03:44:56;8.10;;;4.68;;
52866;SDS011;38739;53.324;6.862;2022-12-20T03:47:21;7.50;;;5.50;;
52866;SDS011;38739;53.324;6.862;2022-12-20T03:49:47;8.48;;;5.13;;
52866;SDS011;38739;53.324;6.862;2022-12-20T03:52:12;6.55;;;4.70;;
52866;SDS011;38739;53.324;6.862;2022-12-20T03:54:39;8.82;;;5.43;;
52866;SDS011;38739;53.324;6.862;2022-12-20T03:57:05;9.05;;;5.00;;
52866;SDS011;38739;53.324;6.862;2022-12-20T03:59:31;8.55;;;5.25;;
52866;SDS011;38739;53.324;6.862;2022-12-20T04:01:56;8.45;;;4.97;;
52866;SDS011;38739;53.324;6.862;2022-12-20T04:04:22;6.82;;;4.80;;
52866;SDS011;38739;53.324;6.862;2022-12-20T04:06:48;7.28;;;4.85;;
52866;SDS011;38739;53.324;6.862;2022-12-20T04:09:14;7.43;;;4.82;;
52866;SDS011;38739;53.324;6.862;2022-12-20T04:11:39;5.43;;;4.50;;
52866;SDS011;38739;53.324;6.862;2022-12-20T04:14:05;7.75;;;5.05;;
52866;SDS011;38739;53.324;6.862;2022-12-20T04:16:32;8.40;;;5.30;;
52866;SDS011;38739;53.324;6.862;2022-12-20T04:18:58;9.38;;;5.28;;
52866;SDS011;38739;53.324;6.862;2022-12-20T04:21:28;8.63;;;5.13;;
52866;SDS011;38739;53.324;6.862;2022-12-20T04:23:56;8.15;;;5.13;;
52866;SDS011;38739;53.324;6.862;2022-12-20T04:26:22;6.90;;;5.18;;
52866;SDS011;38739;53.324;6.862;2022-12-20T04:28:49;7.47;;;5.00;;
52866;SDS011;38739;53.324;6.862;2022-12-20T04:31:14;9.05;;;5.10;;
52866;SDS011;38739;53.324;6.862;2022-12-20T04:33:40;8.05;;;5.40;;
52866;SDS011;38739;53.324;6.862;2022-12-20T04:36:06;8.20;;;4.85;;
52866;SDS011;38739;53.324;6.862;2022-12-20T04:38:32;8.93;;;4.95;;
52866;SDS011;38739;53.324;6.862;2022-12-20T04:40:58;7.60;;;5.00;;
52866;SDS011;38739;53.324;6.862;2022-12-20T04:43:24;8.40;;;5.30;;
52866;SDS011;38739;53.324;6.862;2022-12-20T04:45:51;7.80;;;5.18;;
52866;SDS011;38739;53.324;6.862;2022-12-20T04:48:20;7.65;;;5.10;;
52866;SDS011;38739;53.324;6.862;2022-12-20T04:50:49;7.55;;;4.95;;
52866;SDS011;38739;53.324;6.862;2022-12-20T04:53:15;6.43;;;5.30;;
52866;SDS011;38739;53.324;6.862;2022-12-20T04:56:00;7.53;;;5.10;;
52866;SDS011;38739;53.324;6.862;2022-12-20T04:58:26;9.27;;;5.40;;
52866;SDS011;38739;53.324;6.862;2022-12-20T05:00:52;8.18;;;4.95;;
52866;SDS011;38739;53.324;6.862;2022-12-20T05:03:18;7.50;;;5.47;;
52866;SDS011;38739;53.324;6.862;2022-12-20T05:05:44;9.00;;;5.35;;
52866;SDS011;38739;53.324;6.862;2022-12-20T05:08:10;8.13;;;5.40;;
52866;SDS011;38739;53.324;6.862;2022-12-20T05:10:36;9.30;;;5.38;;
52866;SDS011;38739;53.324;6.862;2022-12-20T05:13:02;7.03;;;5.53;;
52866;SDS011;38739;53.324;6.862;2022-12-20T05:15:28;9.07;;;5.32;;
52866;SDS011;38739;53.324;6.862;2022-12-20T05:17:54;9.05;;;5.43;;
52866;SDS011;38739;53.324;6.862;2022-12-20T05:20:24;7.43;;;5.50;;
52866;SDS011;38739;53.324;6.862;2022-12-20T05:22:51;7.85;;;5.40;;
52866;SDS011;38739;53.324;6.862;2022-12-20T05:25:37;10.10;;;5.70;;
52866;SDS011;38739;53.324;6.862;2022-12-20T05:28:22;10.40;;;5.57;;
52866;SDS011;38739;53.324;6.862;2022-12-20T05:30:48;8.45;;;5.60;;
52866;SDS011;38739;53.324;6.862;2022-12-20T05:33:14;8.52;;;5.53;;
52866;SDS011;38739;53.324;6.862;2022-12-20T05:35:39;9.63;;;5.53;;
52866;SDS011;38739;53.324;6.862;2022-12-20T05:38:05;7.40;;;5.13;;
52866;SDS011;38739;53.324;6.862;2022-12-20T05:40:31;7.57;;;5.30;;
52866;SDS011;38739;53.324;6.862;2022-12-20T05:42:57;8.20;;;5.50;;
52866;SDS011;38739;53.324;6.862;2022-12-20T05:45:22;9.60;;;5.20;;
52866;SDS011;38739;53.324;6.862;2022-12-20T05:47:48;8.00;;;5.55;;
52866;SDS011;38739;53.324;6.862;2022-12-20T05:50:14;9.00;;;5.05;;
52866;SDS011;38739;53.324;6.862;2022-12-20T05:52:41;9.20;;;5.00;;
52866;SDS011;38739;53.324;6.862;2022-12-20T05:55:07;5.70;;;4.55;;
52866;SDS011;38739;53.324;6.862;2022-12-20T05:57:33;6.30;;;4.60;;
52866;SDS011;38739;53.324;6.862;2022-12-20T05:59:58;8.93;;;5.32;;
52866;SDS011;38739;53.324;6.862;2022-12-20T06:02:24;7.28;;;4.57;;
52866;SDS011;38739;53.324;6.862;2022-12-20T06:04:50;12.38;;;5.13;;
52866;SDS011;38739;53.324;6.862;2022-12-20T06:07:15;7.38;;;4.50;;
52866;SDS011;38739;53.324;6.862;2022-12-20T06:09:43;9.95;;;4.80;;
52866;SDS011;38739;53.324;6.862;2022-12-20T06:12:09;7.25;;;4.45;;
52866;SDS011;38739;53.324;6.862;2022-12-20T06:14:34;5.72;;;4.50;;
52866;SDS011;38739;53.324;6.862;2022-12-20T06:17:00;7.82;;;4.78;;
52866;SDS011;38739;53.324;6.862;2022-12-20T06:19:26;7.00;;;4.68;;
52866;SDS011;38739;53.324;6.862;2022-12-20T06:21:52;8.73;;;4.80;;
52866;SDS011;38739;53.324;6.862;2022-12-20T06:24:18;7.05;;;4.05;;
52866;SDS011;38739;53.324;6.862;2022-12-20T06:26:43;6.45;;;4.43;;
52866;SDS011;38739;53.324;6.862;2022-12-20T06:29:09;8.48;;;4.38;;
52866;SDS011;38739;53.324;6.862;2022-12-20T06:31:38;5.65;;;4.20;;
52866;SDS011;38739;53.324;6.862;2022-12-20T06:34:04;6.00;;;4.38;;
52866;SDS011;38739;53.324;6.862;2022-12-20T06:36:30;8.55;;;4.57;;
52866;SDS011;38739;53.324;6.862;2022-12-20T06:38:56;6.93;;;4.15;;
52866;SDS011;38739;53.324;6.862;2022-12-20T06:41:21;6.32;;;4.15;;
52866;SDS011;38739;53.324;6.862;2022-12-20T06:43:47;6.75;;;4.28;;
52866;SDS011;38739;53.324;6.862;2022-12-20T06:46:13;11.20;;;4.55;;
52866;SDS011;38739;53.324;6.862;2022-12-20T06:48:38;5.68;;;4.22;;
52866;SDS011;38739;53.324;6.862;2022-12-20T06:51:04;6.70;;;4.55;;
52866;SDS011;38739;53.324;6.862;2022-12-20T06:53:30;7.18;;;4.40;;
52866;SDS011;38739;53.324;6.862;2022-12-20T06:55:55;10.30;;;4.10;;
52866;SDS011;38739;53.324;6.862;2022-12-20T06:58:21;6.50;;;4.40;;
52866;SDS011;38739;53.324;6.862;2022-12-20T07:00:47;5.93;;;4.20;;
52866;SDS011;38739;53.324;6.862;2022-12-20T07:03:13;8.30;;;4.40;;
52866;SDS011;38739;53.324;6.862;2022-12-20T07:05:39;6.00;;;4.60;;
52866;SDS011;38739;53.324;6.862;2022-12-20T07:08:05;5.88;;;4.13;;
52866;SDS011;38739;53.324;6.862;2022-12-20T07:10:34;6.03;;;4.03;;
52866;SDS011;38739;53.324;6.862;2022-12-20T07:13:01;7.10;;;4.40;;
52866;SDS011;38739;53.324;6.862;2022-12-20T07:15:27;6.28;;;4.25;;
52866;SDS011;38739;53.324;6.862;2022-12-20T07:17:53;5.38;;;4.20;;
52866;SDS011;38739;53.324;6.862;2022-12-20T07:20:18;6.30;;;4.57;;
52866;SDS011;38739;53.324;6.862;2022-12-20T07:22:46;5.13;;;4.10;;
52866;SDS011;38739;53.324;6.862;2022-12-20T07:25:12;7.15;;;4.97;;
52866;SDS011;38739;53.324;6.862;2022-12-20T07:27:38;7.85;;;5.07;;
52866;SDS011;38739;53.324;6.862;2022-12-20T07:30:04;6.78;;;4.63;;
52866;SDS011;38739;53.324;6.862;2022-12-20T07:32:30;8.75;;;5.70;;
52866;SDS011;38739;53.324;6.862;2022-12-20T07:34:56;10.75;;;5.75;;
52866;SDS011;38739;53.324;6.862;2022-12-20T07:37:22;13.13;;;6.05;;
52866;SDS011;38739;53.324;6.862;2022-12-20T07:39:48;9.52;;;5.32;;
52866;SDS011;38739;53.324;6.862;2022-12-20T07:42:13;11.82;;;6.82;;
52866;SDS011;38739;53.324;6.862;2022-12-20T07:44:39;9.23;;;6.00;;
52866;SDS011;38739;53.324;6.862;2022-12-20T07:47:05;8.60;;;6.30;;
52866;SDS011;38739;53.324;6.862;2022-12-20T07:49:30;9.88;;;6.45;;
52866;SDS011;38739;53.324;6.862;2022-12-20T07:51:56;11.52;;;6.57;;
52866;SDS011;38739;53.324;6.862;2022-12-20T07:54:27;9.25;;;6.82;;
52866;SDS011;38739;53.324;6.862;2022-12-20T07:56:56;11.68;;;6.90;;
52866;SDS011;38739;53.324;6.862;2022-12-20T07:59:25;9.38;;;7.00;;
52866;SDS011;38739;53.324;6.862;2022-12-20T08:01:54;9.50;;;6.50;;
52866;SDS011;38739;53.324;6.862;2022-12-20T08:04:22;9.63;;;7.10;;
52866;SDS011;38739;53.324;6.862;2022-12-20T08:06:51;9.23;;;6.90;;
52866;SDS011;38739;53.324;6.862;2022-12-20T08:09:19;9.75;;;6.57;;
52866;SDS011;38739;53.324;6.862;2022-12-20T08:11:47;12.07;;;7.68;;
52866;SDS011;38739;53.324;6.862;2022-12-20T08:14:14;12.95;;;7.55;;
52866;SDS011;38739;53.324;6.862;2022-12-20T08:16:42;11.00;;;7.47;;
52866;SDS011;38739;53.324;6.862;2022-12-20T08:19:08;11.48;;;7.18;;
52866;SDS011;38739;53.324;6.862;2022-12-20T08:21:35;12.40;;;7.43;;
52866;SDS011;38739;53.324;6.862;2022-12-20T08:24:01;10.88;;;7.20;;
52866;SDS011;38739;53.324;6.862;2022-12-20T08:26:26;11.02;;;7.93;;
52866;SDS011;38739;53.324;6.862;2022-12-20T08:28:55;13.65;;;7.43;;
52866;SDS011;38739;53.324;6.862;2022-12-20T08:31:21;9.68;;;6.97;;
52866;SDS011;38739;53.324;6.862;2022-12-20T08:33:47;10.23;;;7.10;;
52866;SDS011;38739;53.324;6.862;2022-12-20T08:36:13;10.68;;;7.07;;
52866;SDS011;38739;53.324;6.862;2022-12-20T08:38:39;10.40;;;7.32;;
52866;SDS011;38739;53.324;6.862;2022-12-20T08:41:14;10.50;;;6.50;;
52866;SDS011;38739;53.324;6.862;2022-12-20T08:43:41;10.25;;;7.05;;
52866;SDS011;38739;53.324;6.862;2022-12-20T08:46:07;10.30;;;7.40;;
52866;SDS011;38739;53.324;6.862;2022-12-20T08:48:34;10.48;;;7.22;;
52866;SDS011;38739;53.324;6.862;2022-12-20T08:51:02;9.43;;;6.75;;
52866;SDS011;38739;53.324;6.862;2022-12-20T08:53:29;11.18;;;6.75;;
52866;SDS011;38739;53.324;6.862;2022-12-20T08:56:03;9.85;;;6.30;;
52866;SDS011;38739;53.324;6.862;2022-12-20T08:58:40;10.55;;;6.70;;
52866;SDS011;38739;53.324;6.862;2022-12-20T09:01:08;10.13;;;6.07;;
52866;SDS011;38739;53.324;6.862;2022-12-20T09:03:36;8.90;;;6.28;;
52866;SDS011;38739;53.324;6.862;2022-12-20T09:06:10;12.45;;;6.35;;
52866;SDS011;38739;53.324;6.862;2022-12-20T09:08:38;10.70;;;6.25;;
52866;SDS011;38739;53.324;6.862;2022-12-20T09:11:09;10.73;;;6.13;;
52866;SDS011;38739;53.324;6.862;2022-12-20T09:13:39;9.73;;;6.47;;
52866;SDS011;38739;53.324;6.862;2022-12-20T09:16:06;10.50;;;6.00;;
52866;SDS011;38739;53.324;6.862;2022-12-20T09:18:32;10.68;;;5.85;;
52866;SDS011;38739;53.324;6.862;2022-12-20T09:20:59;13.57;;;5.90;;
52866;SDS011;38739;53.324;6.862;2022-12-20T09:23:26;10.45;;;5.45;;
52866;SDS011;38739;53.324;6.862;2022-12-20T09:25:52;6.95;;;5.07;;
52866;SDS011;38739;53.324;6.862;2022-12-20T09:28:17;9.38;;;5.15;;
52866;SDS011;38739;53.324;6.862;2022-12-20T09:30:44;9.85;;;5.20;;
52866;SDS011;38739;53.324;6.862;2022-12-20T09:33:09;6.50;;;4.78;;
52866;SDS011;38739;53.324;6.862;2022-12-20T09:35:35;12.95;;;5.13;;
52866;SDS011;38739;53.324;6.862;2022-12-20T09:38:01;10.20;;;5.13;;
52866;SDS011;38739;53.324;6.862;2022-12-20T09:40:29;7.15;;;4.70;;
52866;SDS011;38739;53.324;6.862;2022-12-20T09:42:56;9.57;;;4.78;;
52866;SDS011;38739;53.324;6.862;2022-12-20T09:45:27;7.53;;;4.57;;
52866;SDS011;38739;53.324;6.862;2022-12-20T09:47:57;8.38;;;4.57;;
52866;SDS011;38739;53.324;6.862;2022-12-20T09:50:35;8.23;;;4.05;;
52866;SDS011;38739;53.324;6.862;2022-12-20T09:53:54;9.75;;;5.00;;
52866;SDS011;38739;53.324;6.862;2022-12-20T09:56:23;9.25;;;4.03;;
52866;SDS011;38739;53.324;6.862;2022-12-20T09:58:58;10.85;;;4.30;;
52866;SDS011;38739;53.324;6.862;2022-12-20T10:01:32;6.22;;;4.40;;
52866;SDS011;38739;53.324;6.862;2022-12-20T10:04:01;7.72;;;4.60;;
52866;SDS011;38739;53.324;6.862;2022-12-20T10:09:25;6.72;;;4.30;;
52866;SDS011;38739;53.324;6.862;2022-12-20T10:15:01;8.00;;;4.25;;
52866;SDS011;38739;53.324;6.862;2022-12-20T10:25:31;5.00;;;3.60;;
52866;SDS011;38739;53.324;6.862;2022-12-20T10:27:59;7.40;;;4.00;;
52866;SDS011;38739;53.324;6.862;2022-12-20T10:30:28;5.90;;;4.00;;
52866;SDS011;38739;53.324;6.862;2022-12-20T10:32:56;6.78;;;3.67;;
52866;SDS011;38739;53.324;6.862;2022-12-20T10:38:01;5.10;;;3.80;;
52866;SDS011;38739;53.324;6.862;2022-12-20T10:40:35;6.63;;;3.55;;
52866;SDS011;38739;53.324;6.862;2022-12-20T10:43:03;6.35;;;3.53;;
52866;SDS011;38739;53.324;6.862;2022-12-20T10:45:32;8.20;;;3.80;;
52866;SDS011;38739;53.324;6.862;2022-12-20T10:48:21;8.38;;;4.20;;
52866;SDS011;38739;53.324;6.862;2022-12-20T10:50:56;6.05;;;3.80;;
52866;SDS011;38739;53.324;6.862;2022-12-20T10:53:32;6.03;;;3.47;;
52866;SDS011;38739;53.324;6.862;2022-12-20T10:58:54;7.60;;;3.53;;
52866;SDS011;38739;53.324;6.862;2022-12-20T11:01:28;4.32;;;3.40;;
52866;SDS011;38739;53.324;6.862;2022-12-20T11:04:01;5.88;;;3.92;;
52866;SDS011;38739;53.324;6.862;2022-12-20T11:14:31;5.85;;;3.65;;
52866;SDS011;38739;53.324;6.862;2022-12-20T11:17:03;6.35;;;3.40;;
52866;SDS011;38739;53.324;6.862;2022-12-20T11:22:33;7.72;;;4.25;;
52866;SDS011;38739;53.324;6.862;2022-12-20T11:25:23;6.35;;;3.60;;
52866;SDS011;38739;53.324;6.862;2022-12-20T11:28:10;8.55;;;4.20;;
52866;SDS011;38739;53.324;6.862;2022-12-20T11:33:45;6.25;;;3.72;;
52866;SDS011;38739;53.324;6.862;2022-12-20T11:38:48;5.32;;;3.72;;
52866;SDS011;38739;53.324;6.862;2022-12-20T11:42:09;6.22;;;4.10;;
52866;SDS011;38739;53.324;6.862;2022-12-20T11:55:20;7.28;;;4.15;;
52866;SDS011;38739;53.324;6.862;2022-12-20T11:58:02;6.57;;;3.97;;
52866;SDS011;38739;53.324;6.862;2022-12-20T12:00:52;7.75;;;4.22;;
52866;SDS011;38739;53.324;6.862;2022-12-20T12:03:37;9.43;;;4.28;;
52866;SDS011;38739;53.324;6.862;2022-12-20T12:06:11;6.20;;;4.10;;
52866;SDS011;38739;53.324;6.862;2022-12-20T12:08:44;7.38;;;4.20;;
52866;SDS011;38739;53.324;6.862;2022-12-20T12:13:43;6.57;;;4.00;;
52866;SDS011;38739;53.324;6.862;2022-12-20T12:18:46;5.85;;;4.07;;
52866;SDS011;38739;53.324;6.862;2022-12-20T12:21:23;7.50;;;4.45;;
52866;SDS011;38739;53.324;6.862;2022-12-20T12:26:35;6.05;;;4.18;;
52866;SDS011;38739;53.324;6.862;2022-12-20T12:34:50;7.65;;;4.28;;
52866;SDS011;38739;53.324;6.862;2022-12-20T12:43:09;9.40;;;4.30;;
52866;SDS011;38739;53.324;6.862;2022-12-20T12:51:20;8.43;;;5.07;;
52866;SDS011;38739;53.324;6.862;2022-12-20T12:53:53;7.88;;;5.03;;
52866;SDS011;38739;53.324;6.862;2022-12-20T12:56:29;7.57;;;5.00;;
52866;SDS011;38739;53.324;6.862;2022-12-20T13:01:52;9.43;;;6.13;;
52866;SDS011;38739;53.324;6.862;2022-12-20T13:15:00;7.32;;;5.35;;
52866;SDS011;38739;53.324;6.862;2022-12-20T13:17:55;8.00;;;5.57;;
52866;SDS011;38739;53.324;6.862;2022-12-20T13:21:16;7.78;;;5.70;;
52866;SDS011;38739;53.324;6.862;2022-12-20T13:27:16;8.27;;;5.93;;
52866;SDS011;38739;53.324;6.862;2022-12-20T13:37:54;8.18;;;5.55;;
52866;SDS011;38739;53.324;6.862;2022-12-20T13:40:59;7.85;;;5.80;;
52866;SDS011;38739;53.324;6.862;2022-12-20T13:43:27;7.63;;;5.38;;
52866;SDS011;38739;53.324;6.862;2022-12-20T13:48:45;8.00;;;5.63;;
52866;SDS011;38739;53.324;6.862;2022-12-20T13:51:17;8.07;;;5.47;;
52866;SDS011;38739;53.324;6.862;2022-12-20T13:57:04;7.25;;;5.80;;
52866;SDS011;38739;53.324;6.862;2022-12-20T13:59:24;7.72;;;6.10;;
52866;SDS011;38739;53.324;6.862;2022-12-20T14:01:52;9.73;;;6.22;;
52866;SDS011;38739;53.324;6.862;2022-12-20T14:04:20;9.10;;;6.53;;
52866;SDS011;38739;53.324;6.862;2022-12-20T14:06:50;9.88;;;6.18;;
52866;SDS011;38739;53.324;6.862;2022-12-20T14:09:31;10.25;;;6.85;;
52866;SDS011;38739;53.324;6.862;2022-12-20T14:12:03;8.85;;;6.63;;
52866;SDS011;38739;53.324;6.862;2022-12-20T14:14:35;10.55;;;7.15;;
52866;SDS011;38739;53.324;6.862;2022-12-20T14:17:14;9.98;;;7.45;;
52866;SDS011;38739;53.324;6.862;2022-12-20T14:20:04;8.13;;;7.00;;
52866;SDS011;38739;53.324;6.862;2022-12-20T14:22:33;8.85;;;7.00;;
52866;SDS011;38739;53.324;6.862;2022-12-20T14:25:00;10.55;;;7.32;;
52866;SDS011;38739;53.324;6.862;2022-12-20T14:27:30;8.77;;;7.60;;
52866;SDS011;38739;53.324;6.862;2022-12-20T14:30:00;10.18;;;7.88;;
52866;SDS011;38739;53.324;6.862;2022-12-20T14:32:26;11.85;;;8.25;;
52866;SDS011;38739;53.324;6.862;2022-12-20T14:34:52;12.68;;;7.93;;
52866;SDS011;38739;53.324;6.862;2022-12-20T14:37:29;13.38;;;10.50;;
52866;SDS011;38739;53.324;6.862;2022-12-20T14:40:01;12.55;;;9.75;;
52866;SDS011;38739;53.324;6.862;2022-12-20T14:42:32;12.33;;;8.90;;
52866;SDS011;38739;53.324;6.862;2022-12-20T14:45:03;11.25;;;9.05;;
52866;SDS011;38739;53.324;6.862;2022-12-20T14:47:46;12.55;;;9.77;;
52866;SDS011;38739;53.324;6.862;2022-12-20T14:50:19;13.55;;;10.00;;
52866;SDS011;38739;53.324;6.862;2022-12-20T14:53:21;20.13;;;10.13;;
52866;SDS011;38739;53.324;6.862;2022-12-20T14:55:51;15.77;;;10.35;;
52866;SDS011;38739;53.324;6.862;2022-12-20T15:01:33;14.05;;;10.90;;
52866;SDS011;38739;53.324;6.862;2022-12-20T15:06:31;13.30;;;10.27;;
52866;SDS011;38739;53.324;6.862;2022-12-20T15:09:01;16.25;;;11.63;;
52866;SDS011;38739;53.324;6.862;2022-12-20T15:11:26;15.90;;;11.50;;
52866;SDS011;38739;53.324;6.862;2022-12-20T15:13:53;17.02;;;12.07;;
52866;SDS011;38739;53.324;6.862;2022-12-20T15:18:51;17.88;;;12.10;;
52866;SDS011;38739;53.324;6.862;2022-12-20T15:21:33;17.38;;;12.95;;
52866;SDS011;38739;53.324;6.862;2022-12-20T15:24:02;18.58;;;13.50;;
52866;SDS011;38739;53.324;6.862;2022-12-20T15:26:32;18.52;;;14.02;;
52866;SDS011;38739;53.324;6.862;2022-12-20T15:28:58;20.38;;;13.95;;
52866;SDS011;38739;53.324;6.862;2022-12-20T15:31:24;20.33;;;14.35;;
52866;SDS011;38739;53.324;6.862;2022-12-20T15:33:51;18.77;;;13.93;;
52866;SDS011;38739;53.324;6.862;2022-12-20T15:36:20;21.23;;;15.65;;
52866;SDS011;38739;53.324;6.862;2022-12-20T15:38:47;24.77;;;15.50;;
52866;SDS011;38739;53.324;6.862;2022-12-20T15:41:21;23.02;;;16.00;;
52866;SDS011;38739;53.324;6.862;2022-12-20T15:43:55;21.77;;;16.00;;
52866;SDS011;38739;53.324;6.862;2022-12-20T15:46:24;22.52;;;15.88;;
52866;SDS011;38739;53.324;6.862;2022-12-20T15:48:50;23.30;;;16.15;;
52866;SDS011;38739;53.324;6.862;2022-12-20T15:51:17;22.65;;;16.08;;
52866;SDS011;38739;53.324;6.862;2022-12-20T15:54:06;22.02;;;15.80;;
52866;SDS011;38739;53.324;6.862;2022-12-20T15:56:40;21.92;;;16.98;;
52866;SDS011;38739;53.324;6.862;2022-12-20T15:59:05;24.75;;;16.48;;
52866;SDS011;38739;53.324;6.862;2022-12-20T16:01:35;24.63;;;17.17;;
52866;SDS011;38739;53.324;6.862;2022-12-20T16:04:03;22.45;;;16.77;;
52866;SDS011;38739;53.324;6.862;2022-12-20T16:06:30;23.60;;;17.65;;
52866;SDS011;38739;53.324;6.862;2022-12-20T16:08:59;25.60;;;17.95;;
52866;SDS011;38739;53.324;6.862;2022-12-20T16:11:26;27.70;;;19.08;;
52866;SDS011;38739;53.324;6.862;2022-12-20T16:13:54;23.05;;;18.23;;
52866;SDS011;38739;53.324;6.862;2022-12-20T16:16:25;26.55;;;18.98;;
52866;SDS011;38739;53.324;6.862;2022-12-20T16:18:58;26.35;;;18.98;;
52866;SDS011;38739;53.324;6.862;2022-12-20T16:21:29;28.58;;;19.13;;
52866;SDS011;38739;53.324;6.862;2022-12-20T16:26:23;30.60;;;19.25;;
52866;SDS011;38739;53.324;6.862;2022-12-20T16:28:50;25.42;;;19.15;;
52866;SDS011;38739;53.324;6.862;2022-12-20T16:31:25;32.85;;;21.15;;
52866;SDS011;38739;53.324;6.862;2022-12-20T16:33:55;36.78;;;25.95;;
52866;SDS011;38739;53.324;6.862;2022-12-20T16:36:21;34.28;;;22.15;;
52866;SDS011;38739;53.324;6.862;2022-12-20T16:38:48;33.00;;;21.70;;
52866;SDS011;38739;53.324;6.862;2022-12-20T16:41:15;30.25;;;22.08;;
52866;SDS011;38739;53.324;6.862;2022-12-20T16:43:42;32.38;;;22.35;;
52866;SDS011;38739;53.324;6.862;2022-12-20T16:46:13;33.42;;;23.42;;
52866;SDS011;38739;53.324;6.862;2022-12-20T16:48:41;33.55;;;22.92;;
52866;SDS011;38739;53.324;6.862;2022-12-20T16:51:18;35.08;;;23.38;;
52866;SDS011;38739;53.324;6.862;2022-12-20T16:53:49;36.75;;;23.80;;
52866;SDS011;38739;53.324;6.862;2022-12-20T16:56:16;36.95;;;24.60;;
52866;SDS011;38739;53.324;6.862;2022-12-20T16:58:42;36.25;;;23.73;;
52866;SDS011;38739;53.324;6.862;2022-12-20T17:01:14;39.13;;;24.05;;
52866;SDS011;38739;53.324;6.862;2022-12-20T17:03:42;37.92;;;23.55;;
52866;SDS011;38739;53.324;6.862;2022-12-20T17:06:10;34.55;;;23.90;;
52866;SDS011;38739;53.324;6.862;2022-12-20T17:08:36;37.28;;;25.33;;